createdAt,value
2019-05-17T00:00:18.225Z,98974.01
2019-05-17T00:01:52.540Z,98977.84
2019-05-17T00:03:27.318Z,98971.58
2019-05-17T00:05:02.109Z,98975.75
2019-05-17T00:06:37.006Z,98971.19
2019-05-17T00:08:11.555Z,98971.59
2019-05-17T00:09:47.851Z,98970.48
2019-05-17T00:11:22.509Z,98974.59
2019-05-17T00:12:57.277Z,98980.27
2019-05-17T00:14:31.600Z,98982.98
2019-05-17T00:16:07.212Z,98987.05
2019-05-17T00:17:42.790Z,98991.47
2019-05-17T00:19:17.548Z,98987.56
2019-05-17T00:20:51.817Z,98988.66
2019-05-17T00:22:27.022Z,98986.53
2019-05-17T00:24:01.814Z,98980.44
2019-05-17T00:25:37.018Z,98981.75
2019-05-17T00:27:12.012Z,98978.30
2019-05-17T00:28:47.009Z,98975.78
2019-05-17T00:30:21.816Z,98976.49
2019-05-17T00:31:56.893Z,98977.88
2019-05-17T00:33:31.212Z,98979.56
2019-05-17T00:35:07.988Z,98981.09
2019-05-17T00:36:42.440Z,98980.27
2019-05-17T00:38:17.276Z,98980.16
2019-05-17T00:39:51.489Z,98975.31
2019-05-17T00:41:27.110Z,98981.70
2019-05-17T00:43:01.640Z,98983.02
2019-05-17T00:44:36.735Z,98984.98
2019-05-17T00:46:11.221Z,98985.05
2019-05-17T00:47:46.812Z,98985.91
2019-05-17T00:49:21.947Z,98986.34
2019-05-17T00:51:02.230Z,98984.31
2019-05-17T00:52:32.665Z,98986.87
2019-05-17T00:54:07.489Z,98984.16
2019-05-17T00:55:41.953Z,98982.34
2019-05-17T00:57:16.776Z,98979.34
2019-05-17T00:58:50.934Z,98981.31
2019-05-17T01:00:27.836Z,98981.56
2019-05-17T01:02:02.087Z,98986.01
2019-05-17T01:03:36.965Z,98981.94
2019-05-17T01:05:11.412Z,98975.39
2019-05-17T01:06:46.837Z,98979.35
2019-05-17T01:08:21.481Z,98987.11
2019-05-17T01:09:56.779Z,98984.56
2019-05-17T01:11:31.080Z,98982.09
2019-05-17T01:13:06.924Z,98984.06
2019-05-17T01:14:41.985Z,98979.33
2019-05-17T01:16:16.765Z,98981.22
2019-05-17T01:17:51.016Z,98988.02
2019-05-17T01:19:27.036Z,98984.23
2019-05-17T01:21:02.405Z,98982.69
2019-05-17T01:22:37.242Z,98978.69
2019-05-17T01:24:11.493Z,98978.56
2019-05-17T01:25:48.029Z,98979.53
2019-05-17T01:27:22.713Z,98979.27
2019-05-17T01:28:57.545Z,98980.19
2019-05-17T01:30:31.832Z,98977.27
2019-05-17T01:32:06.945Z,98975.91
2019-05-17T01:33:41.905Z,98974.14
2019-05-17T01:35:17.050Z,98975.95
2019-05-17T01:36:51.294Z,98980.56
2019-05-17T01:38:26.919Z,98970.52
2019-05-17T01:40:02.125Z,98976.55
2019-05-17T01:41:37.292Z,98974.33
2019-05-17T01:43:12.164Z,98973.05
2019-05-17T01:44:47.343Z,98967.16
2019-05-17T01:46:22.125Z,98965.34
2019-05-17T01:47:56.894Z,98972.84
2019-05-17T01:49:31.104Z,98970.54
2019-05-17T01:51:07.513Z,98964.47
2019-05-17T01:52:42.338Z,98970.87
2019-05-17T01:54:17.679Z,98973.13
2019-05-17T01:55:52.204Z,98969.36
2019-05-17T01:57:27.422Z,98964.73
2019-05-17T01:59:02.977Z,98963.47
2019-05-17T02:00:37.953Z,98959.35
2019-05-17T02:02:16.749Z,98965.48
2019-05-17T02:03:51.290Z,98965.56
2019-05-17T02:05:27.400Z,98964.08
2019-05-17T02:07:02.302Z,98964.44
2019-05-17T02:08:37.186Z,98970.38
2019-05-17T02:10:16.542Z,98963.70
2019-05-17T02:11:50.874Z,98963.58
2019-05-17T02:13:26.774Z,98969.16
2019-05-17T02:15:01.858Z,98967.09
2019-05-17T02:16:37.630Z,98966.39
2019-05-17T02:18:12.819Z,98962.69
2019-05-17T02:19:47.592Z,98964.98
2019-05-17T02:21:21.809Z,98960.69
2019-05-17T02:22:57.361Z,98962.69
2019-05-17T02:24:31.911Z,98961.02
2019-05-17T02:26:06.914Z,98957.80
2019-05-17T02:27:44.633Z,98956.98
2019-05-17T02:29:18.476Z,98950.22
2019-05-17T02:30:53.864Z,98953.03
2019-05-17T02:32:28.764Z,98955.10
2019-05-17T02:34:03.568Z,98951.88
2019-05-17T02:35:38.332Z,98953.62
2019-05-17T02:37:13.616Z,98951.23
2019-05-17T02:38:48.520Z,98954.24
2019-05-17T02:40:22.836Z,98951.80
2019-05-17T02:41:57.568Z,98952.38
2019-05-17T02:43:33.444Z,98953.77
2019-05-17T02:45:09.467Z,98953.11
2019-05-17T02:46:44.020Z,98951.38
2019-05-17T02:48:18.816Z,98949.25
2019-05-17T02:49:53.513Z,98947.84
2019-05-17T02:51:28.316Z,98954.57
2019-05-17T02:53:04.759Z,98962.75
2019-05-17T02:54:39.748Z,98961.09
2019-05-17T02:56:14.321Z,98960.44
2019-05-17T02:57:49.089Z,98958.58
2019-05-17T02:59:23.461Z,98962.66
2019-05-17T03:00:58.205Z,98960.44
2019-05-17T03:02:34.086Z,98959.58
2019-05-17T03:04:09.279Z,98954.80
2019-05-17T03:05:43.340Z,98961.39
2019-05-17T03:07:18.161Z,98966.30
2019-05-17T03:08:52.640Z,98963.95
2019-05-17T03:10:28.923Z,98958.84
2019-05-17T03:12:03.879Z,98966.95
2019-05-17T03:13:38.936Z,98961.89
2019-05-17T03:15:14.299Z,98968.06
2019-05-17T03:16:48.810Z,98962.91
2019-05-17T03:18:23.258Z,98958.54
2019-05-17T03:19:58.103Z,98959.20
2019-05-17T03:21:33.769Z,98955.87
2019-05-17T03:23:09.075Z,98964.20
2019-05-17T03:24:43.865Z,98959.27
2019-05-17T03:26:18.869Z,98963.87
2019-05-17T03:27:53.771Z,98961.48
2019-05-17T03:29:28.726Z,98957.78
2019-05-17T03:31:07.955Z,98956.92
2019-05-17T03:32:47.286Z,98957.45
2019-05-17T03:34:18.039Z,98961.42
2019-05-17T03:35:56.608Z,98960.77
2019-05-17T03:37:36.695Z,98961.80
2019-05-17T03:39:08.193Z,98959.91
2019-05-17T03:41:11.847Z,98962.14
2019-05-17T03:42:19.002Z,98959.63
2019-05-17T03:43:53.497Z,98961.42
2019-05-17T03:45:28.312Z,98959.87
2019-05-17T03:47:03.198Z,98960.16
2019-05-17T03:48:38.765Z,98954.39
2019-05-17T03:50:13.593Z,98956.87
2019-05-17T03:51:48.963Z,98949.00
2019-05-17T03:53:23.390Z,98953.00
2019-05-17T03:54:58.209Z,98951.66
2019-05-17T03:56:33.122Z,98951.21
2019-05-17T03:58:08.144Z,98954.19
2019-05-17T03:59:43.072Z,98956.48
2019-05-17T04:01:18.361Z,98956.42
2019-05-17T04:02:53.745Z,98954.90
2019-05-17T04:04:29.017Z,98956.25
2019-05-17T04:06:04.067Z,98956.75
2019-05-17T04:07:39.249Z,98953.19
2019-05-17T04:09:14.154Z,98951.22
2019-05-17T04:10:49.084Z,98960.21
2019-05-17T04:12:23.845Z,98959.95
2019-05-17T04:13:58.722Z,98959.30
2019-05-17T04:15:33.205Z,98961.62
2019-05-17T04:17:08.236Z,98962.04
2019-05-17T04:18:43.807Z,98964.09
2019-05-17T04:20:18.786Z,98968.41
2019-05-17T04:21:53.735Z,98966.17
2019-05-17T04:23:28.784Z,98969.01
2019-05-17T04:25:03.487Z,98966.17
2019-05-17T04:26:38.305Z,98968.23
2019-05-17T04:28:13.657Z,98967.36
2019-05-17T04:29:48.789Z,98971.34
2019-05-17T04:31:23.344Z,98970.60
2019-05-17T04:32:58.170Z,98978.69
2019-05-17T04:34:33.546Z,98977.85
2019-05-17T04:36:12.905Z,98981.89
2019-05-17T04:37:45.583Z,98987.16
2019-05-17T04:39:22.577Z,98979.83
2019-05-17T04:40:56.284Z,98981.20
2019-05-17T04:42:33.110Z,98981.70
2019-05-17T04:44:07.026Z,98974.45
2019-05-17T04:45:42.814Z,98978.73
2019-05-17T04:47:17.125Z,98977.38
2019-05-17T04:48:53.575Z,98985.13
2019-05-17T04:50:27.980Z,98988.14
2019-05-17T04:52:03.731Z,98992.80
2019-05-17T04:53:38.101Z,98988.78
2019-05-17T04:55:14.070Z,98993.89
2019-05-17T04:56:48.912Z,98991.21
2019-05-17T04:58:23.705Z,98994.67
2019-05-17T04:59:57.913Z,98996.02
2019-05-17T05:01:33.381Z,99000.01
2019-05-17T05:03:12.458Z,99000.38
2019-05-17T05:04:45.545Z,98999.96
2019-05-17T05:06:23.149Z,99002.16
2019-05-17T05:07:56.477Z,98999.72
2019-05-17T05:09:32.311Z,98999.45
2019-05-17T05:11:07.357Z,99001.92
2019-05-17T05:12:43.641Z,99000.20
2019-05-17T05:14:18.156Z,99002.08
2019-05-17T05:15:52.732Z,99011.55
2019-05-17T05:17:28.980Z,99005.86
2019-05-17T05:19:03.252Z,99010.33
2019-05-17T05:20:38.108Z,99010.27
2019-05-17T05:22:13.549Z,99016.89
2019-05-17T05:23:49.158Z,99016.21
2019-05-17T05:25:23.453Z,99010.13
2019-05-17T05:26:58.288Z,99011.19
2019-05-17T05:28:32.844Z,99011.94
2019-05-17T05:30:08.185Z,99009.38
2019-05-17T05:31:42.851Z,99012.83
2019-05-17T05:33:17.800Z,99008.91
2019-05-17T05:34:52.313Z,99011.99
2019-05-17T05:36:27.142Z,99012.28
2019-05-17T05:38:02.204Z,99007.69
2019-05-17T05:39:37.469Z,99014.66
2019-05-17T05:41:12.280Z,99017.34
2019-05-17T05:42:47.324Z,99021.27
2019-05-17T05:44:21.593Z,99025.27
2019-05-17T05:45:56.359Z,99023.59
2019-05-17T05:47:32.380Z,99024.95
2019-05-17T05:49:07.526Z,99029.16
2019-05-17T05:50:43.121Z,99034.25
2019-05-17T05:52:18.436Z,99033.30
2019-05-17T14:31:18.907Z,98888.78
2019-05-17T14:32:54.761Z,98888.42
2019-05-17T14:34:30.315Z,98893.26
2019-05-17T14:36:05.113Z,98900.79
2019-05-17T14:37:39.318Z,98898.29
2019-05-17T14:39:14.074Z,98901.48
2019-05-17T14:41:05.682Z,98905.53
2019-05-17T14:42:24.924Z,98906.20
2019-05-17T14:43:59.199Z,98909.98
2019-05-17T14:45:33.962Z,98908.80
2019-05-17T14:47:08.482Z,98910.22
2019-05-17T14:48:43.297Z,98905.20
2019-05-17T14:50:19.643Z,98903.81
2019-05-17T14:51:54.408Z,98901.63
2019-05-17T14:53:28.909Z,98899.28
2019-05-17T14:55:03.718Z,98895.53
2019-05-17T14:56:39.577Z,98899.47
2019-05-17T14:58:14.350Z,98892.16
2019-05-17T14:59:48.811Z,98896.76
2019-05-17T15:01:23.379Z,98893.14
2019-05-17T15:02:57.584Z,98893.14
2019-05-17T15:04:32.411Z,98892.64
2019-05-17T15:06:07.161Z,98895.72
2019-05-17T15:07:41.945Z,98895.35
2019-05-17T15:09:16.211Z,98891.79
2019-05-17T15:10:50.993Z,98894.95
2019-05-17T15:12:28.697Z,98893.16
2019-05-17T15:14:01.901Z,98893.23
2019-05-17T15:15:36.123Z,98895.12
2019-05-17T15:17:12.856Z,98905.34
2019-05-17T15:18:47.184Z,98900.78
2019-05-17T15:20:21.989Z,98904.23
2019-05-17T15:21:56.197Z,98904.94
2019-05-17T15:23:31.037Z,98908.54
2019-05-17T15:25:05.966Z,98910.64
2019-05-17T15:26:40.866Z,98904.61
2019-05-17T15:28:15.147Z,98908.34
2019-05-17T15:29:49.991Z,98905.70
2019-05-17T15:31:24.658Z,98904.50
2019-05-17T15:32:59.529Z,98906.30
2019-05-17T15:34:33.774Z,98901.52
2019-05-17T15:36:09.051Z,98907.95
2019-05-17T15:37:43.449Z,98906.95
2019-05-17T15:39:18.216Z,98910.05
2019-05-17T15:40:53.900Z,98909.52
2019-05-17T15:42:43.233Z,98910.55
2019-05-17T15:44:04.765Z,98902.78
2019-05-17T15:45:39.521Z,98912.00
2019-05-17T15:47:13.735Z,98908.30
2019-05-17T15:48:48.608Z,98913.30
2019-05-17T15:50:23.345Z,98916.31
2019-05-17T15:51:58.496Z,98919.41
2019-05-17T15:53:32.807Z,98920.38
2019-05-17T15:55:08.746Z,98922.83
2019-05-17T15:56:43.257Z,98925.23
2019-05-17T15:58:18.030Z,98918.02
2019-05-17T15:59:52.316Z,98930.98
2019-05-17T16:01:27.166Z,98927.59
2019-05-17T16:03:02.041Z,98928.20
2019-05-17T16:04:36.809Z,98927.09
2019-05-17T16:06:11.330Z,98922.98
2019-05-17T16:07:46.452Z,98925.45
2019-05-17T16:09:21.334Z,98925.54
2019-05-17T16:10:56.148Z,98925.96
2019-05-17T16:12:30.464Z,98926.16
2019-05-17T16:14:05.223Z,98927.85
2019-05-17T16:15:39.803Z,98930.75
2019-05-17T16:17:14.626Z,98933.77
2019-05-17T16:18:48.844Z,98931.25
2019-05-17T16:20:23.632Z,98924.41
2019-05-17T16:21:58.281Z,98922.97
2019-05-17T16:23:33.305Z,98915.93
2019-05-17T16:25:07.916Z,98908.70
2019-05-17T16:26:42.724Z,98907.97
2019-05-17T16:28:17.443Z,98901.70
2019-05-17T16:29:52.288Z,98907.14
2019-05-17T16:31:26.516Z,98909.56
2019-05-17T16:33:01.364Z,98908.61
2019-05-17T16:34:36.063Z,98921.85
2019-05-17T16:36:10.864Z,98923.97
2019-05-17T16:37:45.148Z,98918.32
2019-05-17T16:39:20.115Z,98923.00
2019-05-17T16:40:54.819Z,98922.69
2019-05-17T16:42:29.606Z,98920.05
2019-05-17T16:44:04.206Z,98921.48
2019-05-17T16:45:38.989Z,98914.31
2019-05-17T16:47:13.714Z,98915.09
2019-05-17T16:48:49.881Z,98916.24
2019-05-17T16:50:24.116Z,98917.52
2019-05-17T16:51:59.071Z,98923.77
2019-05-17T16:53:33.540Z,98922.20
2019-05-17T16:55:09.199Z,98929.89
2019-05-17T16:56:45.129Z,98930.62
2019-05-17T16:58:19.916Z,98934.00
2019-05-17T16:59:54.302Z,98933.52
2019-05-17T17:01:29.081Z,98930.97
2019-05-17T17:03:04.683Z,98925.48
2019-05-17T17:04:39.529Z,98926.05
2019-05-17T17:06:14.046Z,98929.17
2019-05-17T17:07:49.938Z,98927.56
2019-05-17T17:09:24.274Z,98929.56
2019-05-17T17:10:58.820Z,98930.05
2019-05-17T17:12:33.533Z,98927.26
2019-05-17T17:14:08.339Z,98931.06
2019-05-17T17:15:42.644Z,98931.49
2019-05-17T17:17:17.445Z,98929.41
2019-05-17T17:18:52.101Z,98931.48
2019-05-17T17:20:26.717Z,98929.50
2019-05-17T17:22:00.936Z,98930.06
2019-05-17T17:23:35.731Z,98930.05
2019-05-17T17:25:10.686Z,98935.25
2019-05-17T17:26:45.546Z,98930.91
2019-05-17T17:28:24.977Z,98930.59
2019-05-17T17:29:57.430Z,98928.34
2019-05-17T17:31:32.414Z,98932.42
2019-05-17T17:33:07.191Z,98931.72
2019-05-17T17:34:41.409Z,98926.17
2019-05-17T17:36:19.330Z,98933.11
2019-05-17T17:37:52.441Z,98934.98
2019-05-17T17:39:27.214Z,98935.86
2019-05-17T17:41:05.745Z,98932.76
2019-05-17T17:42:40.526Z,98929.97
2019-05-17T17:44:16.653Z,98929.42
2019-05-17T17:45:51.206Z,98931.59
2019-05-17T17:47:25.520Z,98931.94
2019-05-17T17:49:00.358Z,98933.41
2019-05-17T17:50:34.816Z,98925.95
2019-05-17T17:52:11.432Z,98918.78
2019-05-17T17:53:45.790Z,98923.53
2019-05-17T17:55:21.817Z,98924.02
2019-05-17T17:56:56.788Z,98922.83
2019-05-17T17:58:31.661Z,98920.67
2019-05-17T18:00:07.960Z,98924.61
2019-05-17T18:01:42.749Z,98924.29
2019-05-17T18:03:17.299Z,98929.20
2019-05-17T18:04:52.086Z,98929.29
2019-05-17T18:06:26.438Z,98932.40
2019-05-17T18:08:01.219Z,98931.25
2019-05-17T18:09:35.661Z,98933.17
2019-05-17T18:11:10.528Z,98925.52
2019-05-17T18:12:44.780Z,98934.23
2019-05-17T18:14:22.237Z,98936.39
2019-05-17T18:15:56.797Z,98939.63
2019-05-17T18:17:39.127Z,98941.93
2019-05-17T18:19:09.620Z,98944.41
2019-05-17T18:20:44.541Z,98950.69
2019-05-17T18:22:21.150Z,98950.29
2019-05-17T18:23:57.467Z,98954.09
2019-05-17T18:25:31.798Z,98955.83
2019-05-17T18:27:06.710Z,98956.48
2019-05-17T18:28:41.373Z,98955.38
2019-05-17T18:30:16.153Z,98957.38
2019-05-17T18:31:50.494Z,98957.83
2019-05-17T18:33:25.305Z,98959.17
2019-05-17T18:35:00.413Z,98956.71
2019-05-17T18:36:38.254Z,98956.31
2019-05-17T18:38:11.085Z,98961.12
2019-05-17T18:39:45.893Z,98958.36
2019-05-17T18:41:21.756Z,98955.42
2019-05-17T18:42:56.617Z,98961.39
2019-05-17T18:44:30.960Z,98965.88
2019-05-17T18:46:05.813Z,98966.33
2019-05-17T18:47:40.426Z,98966.72
2019-05-17T18:49:15.204Z,98972.80
2019-05-17T18:50:49.477Z,98969.91
2019-05-17T18:52:24.347Z,98970.59
2019-05-17T18:53:59.099Z,98973.73
2019-05-17T18:55:35.651Z,98972.74
2019-05-17T18:57:09.925Z,98971.82
2019-05-17T18:58:44.711Z,98973.64
2019-05-17T19:00:19.853Z,98982.02
2019-05-17T19:01:56.161Z,98978.95
2019-05-17T19:03:30.444Z,98988.52
2019-05-17T19:05:07.988Z,98981.47
2019-05-17T19:06:42.416Z,98982.48
2019-05-17T19:08:17.189Z,98983.44
2019-05-17T19:09:51.410Z,98983.31
2019-05-17T19:11:26.353Z,98985.84
2019-05-17T19:13:02.302Z,98987.91
2019-05-17T19:14:43.131Z,98981.78
2019-05-17T19:16:13.025Z,98988.81
2019-05-17T19:17:47.797Z,98991.69
2019-05-17T19:19:22.765Z,98989.63
2019-05-17T19:20:57.614Z,98983.14
2019-05-17T19:22:31.836Z,98984.30
2019-05-17T19:24:08.115Z,98989.06
2019-05-17T19:25:42.738Z,98986.25
2019-05-17T19:27:17.502Z,98985.61
2019-05-17T19:28:51.749Z,98984.81
2019-05-17T19:30:28.125Z,98985.97
2019-05-17T19:32:02.750Z,98989.76
2019-05-17T19:33:37.532Z,98993.20
2019-05-17T19:35:13.062Z,98991.86
2019-05-17T19:36:49.226Z,98998.61
2019-05-17T19:38:23.553Z,98997.40
2019-05-17T19:39:58.326Z,98998.96
2019-05-17T19:41:32.555Z,98998.78
2019-05-17T19:43:07.457Z,99001.87
2019-05-17T19:44:41.940Z,98997.49
2019-05-17T19:46:16.699Z,99000.70
2019-05-17T19:47:50.925Z,99006.67
2019-05-17T19:49:27.059Z,99005.17
2019-05-17T19:51:01.596Z,99006.55
2019-05-17T19:52:36.361Z,99008.05
2019-05-17T19:54:10.629Z,99008.42
2019-05-17T19:55:45.462Z,99010.15
2019-05-17T19:57:20.017Z,99011.55
2019-05-17T19:58:54.792Z,99007.42
2019-05-17T20:00:29.016Z,99005.75
2019-05-17T20:02:06.422Z,99008.45
2019-05-17T20:03:40.222Z,99001.95
2019-05-17T20:05:16.471Z,98956.09
2019-05-17T20:06:50.680Z,99003.45
2019-05-17T20:08:25.521Z,99001.95
2019-05-17T20:10:00.332Z,99007.18
2019-05-17T20:11:35.146Z,98997.64
2019-05-17T20:13:09.417Z,98997.78
2019-05-17T20:14:44.709Z,98997.42
2019-05-17T20:16:20.853Z,98993.79
2019-05-17T20:17:55.697Z,98993.88
2019-05-17T20:19:29.953Z,98989.78
2019-05-17T20:21:04.801Z,98985.91
2019-05-17T20:22:44.542Z,98982.59
2019-05-17T20:24:19.287Z,98975.81
2019-05-17T20:25:53.561Z,98979.30
2019-05-17T20:27:29.429Z,98976.63
2019-05-17T20:29:03.754Z,98971.85
2019-05-17T20:30:38.638Z,98972.99
2019-05-17T20:32:12.885Z,98970.34
2019-05-17T20:33:47.657Z,98965.67
2019-05-17T20:35:22.319Z,98974.41
2019-05-17T20:36:57.092Z,98967.83
2019-05-17T20:38:31.348Z,98968.10
2019-05-17T20:40:08.495Z,98966.80
2019-05-17T20:41:42.889Z,98961.99
2019-05-17T20:43:17.945Z,98964.66
2019-05-17T20:44:55.144Z,98966.91
2019-05-17T20:46:30.698Z,98957.23
2019-05-17T20:48:05.047Z,98960.03
2019-05-17T20:49:39.921Z,98956.89
2019-05-17T20:51:14.141Z,98950.77
2019-05-17T20:52:48.981Z,98885.02
2019-05-17T20:54:23.363Z,98937.95
2019-05-17T20:55:58.176Z,98943.28
2019-05-17T20:57:32.393Z,98939.50
2019-05-17T20:59:07.164Z,98941.55
2019-05-17T21:00:41.840Z,98942.25
2019-05-17T21:02:17.679Z,98939.56
2019-05-17T21:03:51.878Z,98945.11
2019-05-17T21:05:26.692Z,98941.13
2019-05-17T21:07:01.435Z,98948.45
2019-05-17T21:08:45.505Z,98945.00
2019-05-17T21:10:12.676Z,98948.56
2019-05-17T21:11:47.489Z,98943.69
2019-05-17T21:13:23.955Z,98947.42
2019-05-17T21:14:58.745Z,98953.09
2019-05-17T21:16:32.977Z,98950.97
2019-05-17T21:18:07.816Z,98948.28
2019-05-17T21:19:42.474Z,98947.09
2019-05-17T21:21:17.253Z,98951.60
2019-05-17T21:22:51.484Z,98947.33
2019-05-17T21:24:26.664Z,98943.20
2019-05-17T21:26:01.066Z,98943.28
2019-05-17T21:27:35.849Z,98947.13
2019-05-17T21:29:10.076Z,98940.61
2019-05-17T21:30:44.925Z,98939.48
2019-05-17T21:32:19.934Z,98938.00
2019-05-17T21:33:54.744Z,98932.12
2019-05-17T21:35:29.017Z,98928.13
2019-05-17T21:37:03.792Z,98930.52
2019-05-17T21:38:38.397Z,98930.36
2019-05-17T21:40:14.133Z,98924.58
2019-05-17T21:41:48.389Z,98925.53
2019-05-17T21:43:23.173Z,98914.77
2019-05-17T21:44:57.597Z,98918.70
2019-05-17T21:46:32.189Z,98915.30
2019-05-17T21:48:06.816Z,98912.41
2019-05-17T21:49:41.596Z,98913.30
2019-05-17T21:51:16.376Z,98909.01
2019-05-17T21:52:51.195Z,98906.79
2019-05-17T21:54:25.427Z,98904.89
2019-05-17T21:56:00.211Z,98901.69
2019-05-17T21:57:34.846Z,98902.28
2019-05-17T21:59:12.623Z,98902.37
2019-05-17T22:01:03.470Z,98901.39
2019-05-17T22:02:38.453Z,98898.06
2019-05-17T22:04:12.755Z,98894.14
2019-05-17T22:05:47.578Z,98891.84
2019-05-17T22:07:21.863Z,98883.47
2019-05-17T22:08:58.467Z,98885.70
2019-05-17T22:10:32.702Z,98883.35
2019-05-17T22:12:08.608Z,98875.38
2019-05-17T22:13:42.920Z,98876.71
2019-05-17T22:15:17.917Z,98866.39
2019-05-17T22:16:52.115Z,98870.48
2019-05-17T22:18:27.614Z,98864.72
2019-05-17T22:20:01.840Z,98863.44
2019-05-17T22:21:37.158Z,98866.58
2019-05-17T22:23:11.421Z,98867.78
2019-05-17T22:24:46.184Z,98865.53
2019-05-17T22:26:20.398Z,98865.36
2019-05-17T22:27:55.713Z,98867.30
2019-05-17T22:29:29.985Z,98862.03
2019-05-17T22:31:04.747Z,98857.21
2019-05-17T22:32:39.040Z,98863.08
2019-05-17T22:34:14.616Z,98862.33
2019-05-17T22:35:48.876Z,98863.03
2019-05-17T22:37:23.632Z,98864.55
2019-05-17T22:38:59.083Z,98865.72
2019-05-17T22:40:34.136Z,98866.66
2019-05-17T22:42:08.405Z,98868.47
2019-05-17T22:43:43.179Z,98870.38
2019-05-17T22:45:17.389Z,98875.16
2019-05-17T22:46:52.477Z,98876.69
2019-05-17T22:48:28.163Z,98876.06
2019-05-17T22:50:03.496Z,98879.33
2019-05-17T22:51:37.712Z,98874.98
2019-05-17T22:53:12.793Z,98870.38
2019-05-17T22:54:47.008Z,98874.76
2019-05-17T22:56:21.548Z,98867.16
2019-05-17T22:57:55.804Z,98868.36
2019-05-17T22:59:31.066Z,98869.06
2019-05-17T23:01:05.279Z,98868.32
2019-05-17T23:02:40.044Z,98869.59
2019-05-17T23:04:14.309Z,98869.92
2019-05-17T23:05:49.947Z,98863.98
2019-05-17T23:07:24.148Z,98866.08
2019-05-17T23:09:01.419Z,98867.56
2019-05-17T23:10:37.146Z,98865.70
2019-05-17T23:12:12.520Z,98863.81
2019-05-17T23:13:46.740Z,98865.91
2019-05-17T23:15:21.585Z,98862.45
2019-05-17T23:16:56.040Z,98857.45
2019-05-17T23:18:35.298Z,98860.42
2019-05-17T23:20:10.297Z,98861.53
2019-05-17T23:21:45.460Z,98861.73
2019-05-17T23:23:19.721Z,98862.88
2019-05-17T23:24:54.889Z,98857.91
2019-05-17T23:26:29.111Z,98861.65
2019-05-17T23:28:05.386Z,98863.63
2019-05-17T23:29:41.207Z,98867.63
2019-05-17T23:31:16.539Z,98862.62
2019-05-17T23:32:50.857Z,98865.02
2019-05-17T23:34:25.623Z,98865.14
2019-05-17T23:35:59.837Z,98867.77
2019-05-17T23:37:35.322Z,98869.38
2019-05-17T23:39:09.579Z,98871.13
2019-05-17T23:40:44.367Z,98869.74
2019-05-17T23:42:18.600Z,98874.23
2019-05-17T23:43:53.938Z,98869.60
2019-05-17T23:45:28.237Z,98870.32
2019-05-17T23:47:06.972Z,98870.23
2019-05-17T23:48:38.994Z,98865.92
2019-05-17T23:50:14.417Z,98861.09
2019-05-17T23:51:48.713Z,98867.67
2019-05-17T23:53:23.976Z,98869.43
2019-05-17T23:54:58.184Z,98859.75
2019-05-17T23:56:33.499Z,98865.00
2019-05-17T23:58:07.712Z,98865.78
2019-05-17T23:59:42.469Z,98864.75
